WetterOnline ( https://www.wetteronline.de )

Wetter aktuell Rathenow

Aktuelles Wetter: Genthin (39m)

6-stündlich | Neueste Meldungen
Ortszeit Temperatur Wetter
Di, 14.07. 14:00 28.8° C wolkig
Di, 14.07. 8:00 17.1° C wolkenlos
Di, 14.07. 2:00 11.2° C fast wolkenlos
Mo, 13.07. 20:00 24.2° C wolkig
Mo, 13.07. 14:00 23.0° C leicht bewölkt
Mo, 13.07. 8:00 15.1° C leicht bewölkt
Mo, 13.07. 2:00 9.1° C wolkenlos
So, 12.07. 20:00 19.0° C bedeckt
Ortszeit Temperatur Wetter
Di, 14.07. 19:30 26.1° C -
Di, 14.07. 19:20 26.1° C -
Di, 14.07. 19:10 26.3° C wolkig
Di, 14.07. 19:00 26.5° C bedeckt
Di, 14.07. 18:50 26.5° C bedeckt
Di, 14.07. 18:40 26.7° C bedeckt
Di, 14.07. 18:30 26.9° C wolkig
Di, 14.07. 18:00 27.3° C bewölkt
Di, 14.07. 17:30 28.1° C bewölkt
Di, 14.07. 17:00 28.2° C wolkig
Di, 14.07. 16:30 28.1° C bewölkt
Di, 14.07. 16:00 28.3° C bewölkt
Ortszeit Relative Feuchte Sichtweite
Di, 14.07. 14:00 24% 55 km
Di, 14.07. 8:00 59% 45 km
Di, 14.07. 2:00 87% 50 km
Mo, 13.07. 20:00 32% >70 km
Mo, 13.07. 14:00 32% 60 km
Mo, 13.07. 8:00 63% 55 km
Mo, 13.07. 2:00 88% 45 km
So, 12.07. 20:00 45% >70 km
Ortszeit Relative Feuchte Sichtweite
Di, 14.07. 19:30 33% -
Di, 14.07. 19:20 33% -
Di, 14.07. 19:10 31% -
Di, 14.07. 19:00 30% 60 km
Di, 14.07. 18:50 30% -
Di, 14.07. 18:40 30% -
Di, 14.07. 18:30 29% 40 km
Di, 14.07. 18:00 27% 55 km
Di, 14.07. 17:30 26% 60 km
Di, 14.07. 17:00 26% 50 km
Di, 14.07. 16:30 26% 55 km
Di, 14.07. 16:00 25% 55 km
Ortszeit Niederschlagsmenge Niederschlagsart
Di, 14.07. 14:00 0.0 l/m2 in 6 Std. -
Di, 14.07. 8:00 0.0 l/m2 in 12 Std. -
Di, 14.07. 2:00 0.0 l/m2 in 6 Std. -
Mo, 13.07. 20:00 0.0 l/m2 in 12 Std. -
Mo, 13.07. 14:00 0.0 l/m2 in 6 Std. -
Mo, 13.07. 8:00 0.0 l/m2 in 12 Std. -
Mo, 13.07. 2:00 0.0 l/m2 in 6 Std. -
So, 12.07. 20:00 0.0 l/m2 in 12 Std. -
Ortszeit Niederschlagsmenge Niederschlagsart
Di, 14.07. 19:30 0.0 l/m2 in 1 Std. -
Di, 14.07. 19:20 keine Meldung -
Di, 14.07. 19:10 keine Meldung -
Di, 14.07. 19:00 0.0 l/m2 in 1 Std. -
Di, 14.07. 18:50 keine Meldung -
Di, 14.07. 18:40 keine Meldung -
Di, 14.07. 18:30 0.0 l/m2 in 1 Std. -
Di, 14.07. 18:00 0.0 l/m2 in 1 Std. -
Di, 14.07. 17:30 0.0 l/m2 in 1 Std. -
Di, 14.07. 17:00 0.0 l/m2 in 1 Std. -
Di, 14.07. 16:30 0.0 l/m2 in 1 Std. -
Di, 14.07. 16:00 0.0 l/m2 in 1 Std. -
Ortszeit Stärke Spitze Richtung
km/h Bft. km/h Grad Sektor
Di, 14.07. 14:00 13 3 30 160° S
Di, 14.07. 8:00 4 1 14 210° SW
Di, 14.07. 2:00 2 1 15 110° O
Mo, 13.07. 20:00 4 1 22 60° NO
Mo, 13.07. 14:00 7 2 22 210° SW
Mo, 13.07. 8:00 4 1 7 240° SW
Mo, 13.07. 2:00 0 0 22 - -
So, 12.07. 20:00 18 3 32 350° N
Ortszeit Stärke Spitze Richtung
km/h Bft. km/h Grad Sektor
Di, 14.07. 19:30 - - 9 - -
Di, 14.07. 19:20 - - - - -
Di, 14.07. 19:10 - - - - -
Di, 14.07. 19:00 7 2 14 240° SW
Di, 14.07. 18:50 7 2 - 240° SW
Di, 14.07. 18:40 7 2 - 240° SW
Di, 14.07. 18:30 7 2 14 220° SW
Di, 14.07. 18:00 7 2 18 260° W
Di, 14.07. 17:30 9 2 19 240° SW
Di, 14.07. 17:00 7 2 22 240° SW
Di, 14.07. 16:30 9 2 22 250° W
Di, 14.07. 16:00 11 2 22 250° W
Ortszeit Untergrenze Bedeckung Gattung
total tief tief mittel hoch
Di, 14.07. 14:00 2700 m 7/8 4/8 - - -
Di, 14.07. 8:00 - 0/8 0/8 - - -
Di, 14.07. 2:00 10500 m 2/8 0/8 - - -
Mo, 13.07. 20:00 5400 m 8/8 8/8 - - -
Mo, 13.07. 14:00 1800 m 4/8 3/8 - - -
Mo, 13.07. 8:00 10500 m 8/8 0/8 - - -
Mo, 13.07. 2:00 - 0/8 0/8 - - -
So, 12.07. 20:00 2100 m 8/8 8/8 - - -
Ortszeit Bedeckungsgrad in Achtel und Wolkenuntergrenze
Di, 14.07. 19:30 -
Di, 14.07. 19:20 -
Di, 14.07. 19:10 1(2700m) 8(3900m) 8(5700m)
Di, 14.07. 19:00 1(3000m) 8(3900m) 8(5400m)
Di, 14.07. 18:50 1(3000m) 8(3900m) 8(5400m)
Di, 14.07. 18:40 1(3000m) 8(3900m) 8(5400m)
Di, 14.07. 18:30 1(2700m) 8(3900m) 8(8700m)
Di, 14.07. 18:00 7(3900m) 8(8400m) 8(9000m)
Di, 14.07. 17:30 7(3600m) 8(8700m) 8(9000m)
Di, 14.07. 17:00 4(3600m) 7(9000m) 7(9000m)
Di, 14.07. 16:30 7(3600m) 7(9000m) 7(9000m)
Di, 14.07. 16:00 6(2400m) 7(3600m) 7(7200m)
Ortszeit Luftdruck NN (hPa) Tendenz (hPa in 3 Std.)
Di, 14.07. 14:00 1013 - 1,9
Di, 14.07. 8:00 1016 - 1,1
Di, 14.07. 2:00 1018 - 1,0
Mo, 13.07. 20:00 1019 - 1,7
Mo, 13.07. 14:00 1023 - 1,9
Mo, 13.07. 8:00 1026 - 0,2
Mo, 13.07. 2:00 1027 - 0,1
So, 12.07. 20:00 1027 + 0,1
Ortszeit Luftdruck NN (hPa) Tendenz (hPa in 3 Std.)
Di, 14.07. 19:30 1011 - 0,9
Di, 14.07. 19:20 1011 keine Meldung
Di, 14.07. 19:10 1011 keine Meldung
Di, 14.07. 19:00 1011 - 1,1
Di, 14.07. 18:50 1011 keine Meldung
Di, 14.07. 18:40 1011 keine Meldung
Di, 14.07. 18:30 1011 - 1,3
Di, 14.07. 18:00 1011 - 1,4
Di, 14.07. 17:30 1011 - 1,5
Di, 14.07. 17:00 1011 - 1,5
Di, 14.07. 16:30 1012 - 1,7
Di, 14.07. 16:00 1012 - 1,8
Ortszeit Schneehöhe (cm)
Di, 14.07. 14:00 -
Di, 14.07. 8:00 -
Di, 14.07. 2:00 -
Mo, 13.07. 20:00 -
Mo, 13.07. 14:00 -
Mo, 13.07. 8:00 -
Mo, 13.07. 2:00 -
So, 12.07. 20:00 -
Ortszeit Schneehöhe (cm)
Di, 14.07. 19:30 -
Di, 14.07. 19:20 -
Di, 14.07. 19:10 -
Di, 14.07. 19:00 -
Di, 14.07. 18:50 -
Di, 14.07. 18:40 -
Di, 14.07. 18:30 -
Di, 14.07. 18:00 -
Di, 14.07. 17:30 -
Di, 14.07. 17:00 -
Di, 14.07. 16:30 -
Di, 14.07. 16:00 -
Link zu dieser Seite / Seite empfehlen

Das Wetter in ...